Monday, October 23, 2017, 1:18 PM EDT
Back to Local

KIDI, Indiana / Stewart Field

Location: Indiana, PA, United States Lat: 40.633
Local Time: 1:18 PM EDT (17:18 GMT) Lon: -79.1
Time Zone: US/Eastern Elev: 1407 ft

Show me the last for .
Show Decoded

2017-10-23 12:35 METAR KIDI 231635Z AUTO 15011KT 10SM FEW031 SCT090 20/14 A3006 RMK A01 =
2017-10-23 12:15 METAR KIDI 231615Z AUTO 17012G22KT 10SM SCT031 19/14 A3008 RMK A01 =
2017-10-23 11:55 METAR KIDI 231555Z AUTO 17013G19KT 10SM SCT025 BKN031 19/14 A3009 RMK A01 =
2017-10-23 11:35 METAR KIDI 231535Z AUTO 19011G20KT 10SM SCT024 19/14 A3009 RMK A01 =
2017-10-23 11:15 METAR KIDI 231515Z AUTO 17011G20KT 10SM CLR 18/14 A3008 RMK A01 =
2017-10-23 10:55 METAR KIDI 231455Z AUTO 16010G21KT 10SM CLR 18/14 A3008 RMK A01 =
2017-10-23 10:35 METAR KIDI 231435Z AUTO 16011G23KT 140V210 10SM CLR 18/14 A3010 RMK A01 =
2017-10-23 10:15 METAR KIDI 231415Z AUTO 17013G19KT 10SM CLR 18/14 A3010 RMK A01 =
2017-10-23 09:55 METAR KIDI 231355Z AUTO 17011G18KT 10SM CLR 17/13 A3011 RMK A01 =
2017-10-23 09:35 METAR KIDI 231335Z AUTO 17011G20KT 150V210 10SM CLR 17/13 A3012 RMK A01 =
2017-10-23 09:15 METAR KIDI 231315Z AUTO 16007G19KT 110V180 10SM CLR 17/13 A3013 RMK A01 =
2017-10-23 08:55 METAR KIDI 231255Z AUTO 16013G20KT 10SM SCT070 17/13 A3013 RMK A01 =
2017-10-23 08:35 METAR KIDI 231235Z AUTO 17013KT 10SM SCT070 BKN080 16/12 A3013 RMK A01 =
2017-10-23 08:15 METAR KIDI 231215Z AUTO 17010G17KT 10SM FEW080 16/12 A3014 RMK A01 =
2017-10-23 07:55 METAR KIDI 231155Z AUTO 16011KT 10SM FEW090 16/12 A3014 RMK A01 =
2017-10-23 07:35 METAR KIDI 231135Z AUTO 10SM CLR 16/12 A3015 RMK A01 =
2017-10-23 07:15 METAR KIDI 231115Z AUTO 17009G16KT 10SM CLR 16/12 A3015 RMK A01 =
2017-10-23 06:55 METAR KIDI 231055Z AUTO 16008G15KT 10SM CLR 16/12 A3016 RMK A01 =
2017-10-23 06:35 METAR KIDI 231035Z AUTO 15008G14KT 10SM CLR 16/12 A3016 RMK A01 =
2017-10-23 06:15 METAR KIDI 231015Z AUTO 15005G12KT 10SM CLR 16/12 A3016 RMK A01 =
2017-10-23 05:55 METAR KIDI 230955Z AUTO 15007KT 120V180 10SM CLR 16/12 A3017 RMK A01 =
2017-10-23 05:35 METAR KIDI 230935Z AUTO 16008G14KT 10SM CLR 16/12 A3017 RMK A01 =
2017-10-23 05:15 METAR KIDI 230915Z AUTO 15008G14KT 10SM CLR 16/12 A3018 RMK A01 =
2017-10-23 04:55 METAR KIDI 230855Z AUTO 15009G18KT 10SM CLR 16/12 A3018 RMK A01 =
2017-10-23 04:35 METAR KIDI 230835Z AUTO 16009KT 10SM CLR 16/13 A3019 RMK A01 =
2017-10-23 04:15 METAR KIDI 230815Z AUTO 16011G21KT 10SM CLR 17/13 A3019 RMK A01 =
2017-10-23 03:55 METAR KIDI 230755Z AUTO 16010KT 10SM CLR 16/13 A3020 RMK A01 =
2017-10-23 03:35 METAR KIDI 230735Z AUTO 15012G18KT 10SM CLR 16/13 A3020 RMK A01 =
2017-10-23 03:15 METAR KIDI 230715Z AUTO 16007G14KT 10SM CLR 17/13 A3021 RMK A01 =
2017-10-23 02:55 METAR KIDI 230655Z AUTO 17008G14KT 10SM CLR 17/13 A3021 RMK A01 =
2017-10-23 02:35 METAR KIDI 230635Z AUTO 17007KT 130V190 10SM CLR 16/13 A3022 RMK A01 =
2017-10-23 02:15 METAR KIDI 230615Z AUTO 17008KT 130V190 10SM CLR 17/13 A3021 RMK A01 =
2017-10-23 01:55 METAR KIDI 230555Z AUTO 17007KT 10SM CLR 17/13 A3022 RMK A01 =
2017-10-23 01:35 METAR KIDI 230535Z AUTO 17007G12KT 10SM CLR 17/12 A3022 RMK A01 =
2017-10-23 01:15 METAR KIDI 230515Z AUTO 19008KT 150V210 10SM CLR 17/12 A3022 RMK A01 =
2017-10-23 00:55 METAR KIDI 230455Z AUTO 17006G13KT 10SM CLR 17/12 A3023 RMK A01 =
2017-10-23 00:35 METAR KIDI 230435Z AUTO 18006KT 10SM CLR 17/12 A3023 RMK A01 =
2017-10-23 00:15 METAR KIDI 230415Z AUTO 18005KT 10SM CLR 17/12 A3023 RMK A01 =
2017-10-22 23:55 METAR KIDI 230355Z AUTO 17007G13KT 10SM CLR 18/12 A3024 RMK A01 =
2017-10-22 23:35 METAR KIDI 230335Z AUTO 19007KT 160V230 10SM CLR 18/12 A3024 RMK A01 =
2017-10-22 23:15 METAR KIDI 230315Z AUTO VRB06G16KT 10SM CLR 18/12 A3023 RMK A01 =
2017-10-22 22:55 METAR KIDI 230255Z AUTO 15007G17KT 120V190 10SM CLR 18/12 A3024 RMK A01 =
2017-10-22 22:35 METAR KIDI 230235Z AUTO 17009G16KT 120V190 10SM CLR 19/12 A3024 RMK A01 =
2017-10-22 22:15 METAR KIDI 230215Z AUTO 15009KT 10SM CLR 19/12 A3024 RMK A01 =
2017-10-22 21:55 METAR KIDI 230155Z AUTO 16011G20KT 10SM CLR 19/12 A3025 RMK A01 =
2017-10-22 21:35 METAR KIDI 230135Z AUTO 15009G15KT 130V190 10SM CLR 19/12 A3025 RMK A01 =
2017-10-22 21:15 METAR KIDI 230115Z AUTO 16008G14KT 130V200 10SM CLR 19/12 A3025 RMK A01 =
2017-10-22 20:55 METAR KIDI 230055Z AUTO 16009G15KT 10SM CLR 19/12 A3025 RMK A01 =
2017-10-22 20:35 METAR KIDI 230035Z AUTO 14009G17KT 10SM CLR 19/12 A3025 RMK A01 =
2017-10-22 20:15 METAR KIDI 230015Z AUTO 14008G15KT 10SM CLR 19/12 A3026 RMK A01 =
2017-10-22 19:55 METAR KIDI 222355Z AUTO 14005KT 10SM CLR 19/12 A3026 RMK A01 =
2017-10-22 19:35 METAR KIDI 222335Z AUTO VRB05KT 10SM CLR 20/12 A3026 RMK A01 =
2017-10-22 19:15 METAR KIDI 222315Z AUTO 14005KT 10SM CLR 20/12 A3025 RMK A01 =
2017-10-22 18:55 METAR KIDI 222255Z AUTO 14007KT 10SM CLR 20/11 A3025 RMK A01 =
2017-10-22 18:35 METAR KIDI 222235Z AUTO 15004KT 10SM CLR 20/11 A3025 RMK A01 =
2017-10-22 18:15 METAR KIDI 222215Z AUTO 15004KT 10SM CLR 21/11 A3024 RMK A01 =
2017-10-22 17:55 METAR KIDI 222155Z AUTO 15006KT 10SM CLR 21/11 A3024 RMK A01 =
2017-10-22 17:35 METAR KIDI 222135Z AUTO 16007KT 10SM CLR 22/11 A3024 RMK A01 =
2017-10-22 17:15 METAR KIDI 222115Z AUTO 17006KT 10SM CLR 23/11 A3025 RMK A01 =
2017-10-22 16:55 METAR KIDI 222055Z AUTO 18010KT 10SM CLR 24/11 A3025 RMK A01 =
2017-10-22 16:35 METAR KIDI 222035Z AUTO 16009G15KT 10SM CLR 24/11 A3025 RMK A01 =
2017-10-22 16:15 METAR KIDI 222015Z AUTO 18007KT 130V220 10SM CLR 24/12 A3025 RMK A01 =
2017-10-22 15:55 METAR KIDI 221955Z AUTO 17007KT 10SM CLR 24/11 A3026 RMK A01 =
2017-10-22 15:35 METAR KIDI 221935Z AUTO 16008KT 10SM CLR 24/11 A3026 RMK A01 =
2017-10-22 15:15 METAR KIDI 221915Z AUTO 16006G11KT 10SM CLR 24/11 A3026 RMK A01 =
2017-10-22 14:55 METAR KIDI 221855Z AUTO 19008KT 10SM CLR 24/12 A3027 RMK A01 =
2017-10-22 14:35 METAR KIDI 221835Z AUTO 17004KT 10SM CLR 24/11 A3028 RMK A01 =
2017-10-22 14:15 METAR KIDI 221815Z AUTO 12004KT 10SM CLR 23/11 A3029 RMK A01 =
2017-10-22 13:55 METAR KIDI 221755Z AUTO 14006KT 10SM CLR 23/11 A3029 RMK A01 =
2017-10-22 13:35 METAR KIDI 221735Z AUTO 00000KT 10SM CLR 23/11 A3030 RMK A01 =

Support USWX by starting your Amazon purchase here.